sensor_id;sensor_type;location;lat;lon;timestamp;P1;durP1;ratioP1;P2;durP2;ratioP2
72557;SDS011;60583;50.094;8.748;2023-07-29T00:00:41;7.03;;;4.57;;
72557;SDS011;60583;50.094;8.748;2023-07-29T00:03:07;7.32;;;4.18;;
72557;SDS011;60583;50.094;8.748;2023-07-29T00:05:33;7.75;;;4.22;;
72557;SDS011;60583;50.094;8.748;2023-07-29T00:07:58;6.70;;;4.20;;
72557;SDS011;60583;50.094;8.748;2023-07-29T00:10:24;8.15;;;4.88;;
72557;SDS011;60583;50.094;8.748;2023-07-29T00:12:49;7.28;;;4.90;;
72557;SDS011;60583;50.094;8.748;2023-07-29T00:15:15;7.70;;;4.75;;
72557;SDS011;60583;50.094;8.748;2023-07-29T00:17:40;6.13;;;4.65;;
72557;SDS011;60583;50.094;8.748;2023-07-29T00:20:06;8.25;;;4.70;;
72557;SDS011;60583;50.094;8.748;2023-07-29T00:22:32;7.63;;;4.80;;
72557;SDS011;60583;50.094;8.748;2023-07-29T00:24:57;6.82;;;4.60;;
72557;SDS011;60583;50.094;8.748;2023-07-29T00:27:24;6.97;;;4.82;;
72557;SDS011;60583;50.094;8.748;2023-07-29T00:29:49;6.65;;;4.20;;
72557;SDS011;60583;50.094;8.748;2023-07-29T00:32:15;7.30;;;4.35;;
72557;SDS011;60583;50.094;8.748;2023-07-29T00:34:40;7.78;;;4.40;;
72557;SDS011;60583;50.094;8.748;2023-07-29T00:37:06;6.95;;;4.30;;
72557;SDS011;60583;50.094;8.748;2023-07-29T00:39:31;6.45;;;4.20;;
72557;SDS011;60583;50.094;8.748;2023-07-29T00:41:57;6.80;;;4.03;;
72557;SDS011;60583;50.094;8.748;2023-07-29T00:44:23;7.43;;;4.43;;
72557;SDS011;60583;50.094;8.748;2023-07-29T00:46:49;6.53;;;3.90;;
72557;SDS011;60583;50.094;8.748;2023-07-29T00:49:17;7.20;;;3.70;;
72557;SDS011;60583;50.094;8.748;2023-07-29T00:51:43;7.47;;;3.47;;
72557;SDS011;60583;50.094;8.748;2023-07-29T00:54:08;6.95;;;3.65;;
72557;SDS011;60583;50.094;8.748;2023-07-29T00:56:34;8.05;;;3.92;;
72557;SDS011;60583;50.094;8.748;2023-07-29T00:59:00;6.03;;;3.60;;
72557;SDS011;60583;50.094;8.748;2023-07-29T01:01:30;6.38;;;3.60;;
72557;SDS011;60583;50.094;8.748;2023-07-29T01:03:56;4.95;;;3.40;;
72557;SDS011;60583;50.094;8.748;2023-07-29T01:06:38;6.20;;;3.38;;
72557;SDS011;60583;50.094;8.748;2023-07-29T01:09:11;5.15;;;3.20;;
72557;SDS011;60583;50.094;8.748;2023-07-29T01:12:01;5.25;;;3.20;;
72557;SDS011;60583;50.094;8.748;2023-07-29T01:14:43;7.35;;;3.80;;
72557;SDS011;60583;50.094;8.748;2023-07-29T01:20:17;5.93;;;3.35;;
72557;SDS011;60583;50.094;8.748;2023-07-29T01:22:45;5.53;;;3.15;;
72557;SDS011;60583;50.094;8.748;2023-07-29T01:25:12;4.97;;;3.47;;
72557;SDS011;60583;50.094;8.748;2023-07-29T01:27:38;5.00;;;3.58;;
72557;SDS011;60583;50.094;8.748;2023-07-29T01:30:04;5.70;;;3.40;;
72557;SDS011;60583;50.094;8.748;2023-07-29T01:35:31;5.00;;;3.30;;
72557;SDS011;60583;50.094;8.748;2023-07-29T01:38:14;5.40;;;3.22;;
72557;SDS011;60583;50.094;8.748;2023-07-29T01:40:45;5.82;;;3.25;;
72557;SDS011;60583;50.094;8.748;2023-07-29T01:43:13;7.00;;;4.13;;
72557;SDS011;60583;50.094;8.748;2023-07-29T01:45:39;5.82;;;3.38;;
72557;SDS011;60583;50.094;8.748;2023-07-29T01:48:05;6.18;;;3.25;;
72557;SDS011;60583;50.094;8.748;2023-07-29T01:50:32;5.18;;;3.45;;
72557;SDS011;60583;50.094;8.748;2023-07-29T01:52:57;5.28;;;3.50;;
72557;SDS011;60583;50.094;8.748;2023-07-29T01:55:23;7.82;;;4.03;;
72557;SDS011;60583;50.094;8.748;2023-07-29T01:57:48;5.78;;;3.47;;
72557;SDS011;60583;50.094;8.748;2023-07-29T02:00:14;4.88;;;3.30;;
72557;SDS011;60583;50.094;8.748;2023-07-29T02:02:40;6.35;;;3.63;;
72557;SDS011;60583;50.094;8.748;2023-07-29T02:05:06;5.43;;;3.58;;
72557;SDS011;60583;50.094;8.748;2023-07-29T02:07:31;6.10;;;4.40;;
72557;SDS011;60583;50.094;8.748;2023-07-29T02:09:56;5.95;;;3.90;;
72557;SDS011;60583;50.094;8.748;2023-07-29T02:12:22;8.85;;;5.65;;
72557;SDS011;60583;50.094;8.748;2023-07-29T02:14:47;6.47;;;4.18;;
72557;SDS011;60583;50.094;8.748;2023-07-29T02:17:13;5.95;;;3.60;;
72557;SDS011;60583;50.094;8.748;2023-07-29T02:19:38;6.85;;;4.50;;
72557;SDS011;60583;50.094;8.748;2023-07-29T02:22:03;6.18;;;3.35;;
72557;SDS011;60583;50.094;8.748;2023-07-29T02:24:29;5.05;;;3.00;;
72557;SDS011;60583;50.094;8.748;2023-07-29T02:26:54;5.55;;;3.15;;
72557;SDS011;60583;50.094;8.748;2023-07-29T02:29:20;5.60;;;3.80;;
72557;SDS011;60583;50.094;8.748;2023-07-29T02:31:46;7.57;;;3.33;;
72557;SDS011;60583;50.094;8.748;2023-07-29T02:34:12;6.15;;;3.10;;
72557;SDS011;60583;50.094;8.748;2023-07-29T02:36:38;4.90;;;3.17;;
72557;SDS011;60583;50.094;8.748;2023-07-29T02:39:03;5.53;;;3.70;;
72557;SDS011;60583;50.094;8.748;2023-07-29T02:41:29;5.68;;;3.42;;
72557;SDS011;60583;50.094;8.748;2023-07-29T02:43:54;6.85;;;3.33;;
72557;SDS011;60583;50.094;8.748;2023-07-29T02:46:20;5.65;;;3.40;;
72557;SDS011;60583;50.094;8.748;2023-07-29T02:48:45;6.20;;;3.47;;
72557;SDS011;60583;50.094;8.748;2023-07-29T02:51:11;5.90;;;3.40;;
72557;SDS011;60583;50.094;8.748;2023-07-29T02:53:36;4.88;;;3.10;;
72557;SDS011;60583;50.094;8.748;2023-07-29T02:56:02;5.55;;;3.10;;
72557;SDS011;60583;50.094;8.748;2023-07-29T02:58:28;6.00;;;3.08;;
72557;SDS011;60583;50.094;8.748;2023-07-29T03:01:00;6.70;;;3.25;;
72557;SDS011;60583;50.094;8.748;2023-07-29T03:03:29;6.47;;;4.38;;
72557;SDS011;60583;50.094;8.748;2023-07-29T03:06:02;6.75;;;3.47;;
72557;SDS011;60583;50.094;8.748;2023-07-29T03:08:32;6.53;;;3.67;;
72557;SDS011;60583;50.094;8.748;2023-07-29T03:10:58;5.90;;;3.30;;
72557;SDS011;60583;50.094;8.748;2023-07-29T03:13:23;4.93;;;3.03;;
72557;SDS011;60583;50.094;8.748;2023-07-29T03:15:49;5.50;;;3.42;;
72557;SDS011;60583;50.094;8.748;2023-07-29T03:18:15;6.18;;;3.40;;
72557;SDS011;60583;50.094;8.748;2023-07-29T03:20:40;6.70;;;3.50;;
72557;SDS011;60583;50.094;8.748;2023-07-29T03:23:06;6.05;;;3.47;;
72557;SDS011;60583;50.094;8.748;2023-07-29T03:25:32;5.15;;;3.28;;
72557;SDS011;60583;50.094;8.748;2023-07-29T03:27:58;5.85;;;3.50;;
72557;SDS011;60583;50.094;8.748;2023-07-29T03:30:23;4.75;;;2.83;;
72557;SDS011;60583;50.094;8.748;2023-07-29T03:32:49;4.78;;;2.75;;
72557;SDS011;60583;50.094;8.748;2023-07-29T03:35:14;6.30;;;3.35;;
72557;SDS011;60583;50.094;8.748;2023-07-29T03:37:40;6.47;;;3.40;;
72557;SDS011;60583;50.094;8.748;2023-07-29T03:40:06;6.15;;;3.38;;
72557;SDS011;60583;50.094;8.748;2023-07-29T03:42:32;5.57;;;3.33;;
72557;SDS011;60583;50.094;8.748;2023-07-29T03:44:58;5.13;;;3.28;;
72557;SDS011;60583;50.094;8.748;2023-07-29T03:47:23;5.70;;;3.13;;
72557;SDS011;60583;50.094;8.748;2023-07-29T03:49:48;5.53;;;2.92;;
72557;SDS011;60583;50.094;8.748;2023-07-29T03:52:15;5.72;;;2.90;;
72557;SDS011;60583;50.094;8.748;2023-07-29T03:54:40;5.90;;;3.20;;
72557;SDS011;60583;50.094;8.748;2023-07-29T03:57:06;5.10;;;2.92;;
72557;SDS011;60583;50.094;8.748;2023-07-29T03:59:31;5.13;;;2.70;;
72557;SDS011;60583;50.094;8.748;2023-07-29T04:01:57;6.03;;;3.20;;
72557;SDS011;60583;50.094;8.748;2023-07-29T04:04:22;6.45;;;3.38;;
72557;SDS011;60583;50.094;8.748;2023-07-29T04:06:48;5.72;;;3.60;;
72557;SDS011;60583;50.094;8.748;2023-07-29T04:09:13;7.60;;;3.85;;
72557;SDS011;60583;50.094;8.748;2023-07-29T04:11:38;5.72;;;2.92;;
72557;SDS011;60583;50.094;8.748;2023-07-29T04:14:04;6.47;;;3.08;;
72557;SDS011;60583;50.094;8.748;2023-07-29T04:16:29;4.95;;;3.20;;
72557;SDS011;60583;50.094;8.748;2023-07-29T04:18:55;5.13;;;2.60;;
72557;SDS011;60583;50.094;8.748;2023-07-29T04:21:20;6.65;;;4.05;;
72557;SDS011;60583;50.094;8.748;2023-07-29T04:23:45;5.72;;;3.45;;
72557;SDS011;60583;50.094;8.748;2023-07-29T04:26:12;5.10;;;3.13;;
72557;SDS011;60583;50.094;8.748;2023-07-29T04:28:38;5.00;;;3.08;;
72557;SDS011;60583;50.094;8.748;2023-07-29T04:31:03;7.20;;;3.20;;
72557;SDS011;60583;50.094;8.748;2023-07-29T04:33:29;7.22;;;2.95;;
72557;SDS011;60583;50.094;8.748;2023-07-29T04:35:55;5.63;;;3.03;;
72557;SDS011;60583;50.094;8.748;2023-07-29T04:38:20;5.18;;;3.03;;
72557;SDS011;60583;50.094;8.748;2023-07-29T04:40:48;5.30;;;3.00;;
72557;SDS011;60583;50.094;8.748;2023-07-29T04:43:14;6.50;;;3.20;;
72557;SDS011;60583;50.094;8.748;2023-07-29T04:45:43;5.57;;;3.25;;
72557;SDS011;60583;50.094;8.748;2023-07-29T04:48:08;6.47;;;3.45;;
72557;SDS011;60583;50.094;8.748;2023-07-29T04:50:34;9.90;;;3.35;;
72557;SDS011;60583;50.094;8.748;2023-07-29T04:52:59;6.15;;;3.30;;
72557;SDS011;60583;50.094;8.748;2023-07-29T04:55:25;6.20;;;3.72;;
72557;SDS011;60583;50.094;8.748;2023-07-29T04:57:50;6.72;;;3.17;;
72557;SDS011;60583;50.094;8.748;2023-07-29T05:00:16;5.63;;;2.97;;
72557;SDS011;60583;50.094;8.748;2023-07-29T05:02:41;5.35;;;3.20;;
72557;SDS011;60583;50.094;8.748;2023-07-29T05:05:07;5.55;;;2.97;;
72557;SDS011;60583;50.094;8.748;2023-07-29T05:07:33;6.32;;;3.55;;
72557;SDS011;60583;50.094;8.748;2023-07-29T05:09:58;6.00;;;3.50;;
72557;SDS011;60583;50.094;8.748;2023-07-29T05:12:24;5.78;;;3.53;;
72557;SDS011;60583;50.094;8.748;2023-07-29T05:14:49;5.05;;;3.05;;
72557;SDS011;60583;50.094;8.748;2023-07-29T05:17:14;6.88;;;3.90;;
72557;SDS011;60583;50.094;8.748;2023-07-29T05:19:40;7.18;;;3.65;;
72557;SDS011;60583;50.094;8.748;2023-07-29T05:22:05;6.30;;;3.72;;
72557;SDS011;60583;50.094;8.748;2023-07-29T05:24:30;6.93;;;3.53;;
72557;SDS011;60583;50.094;8.748;2023-07-29T05:26:56;8.00;;;3.63;;
72557;SDS011;60583;50.094;8.748;2023-07-29T05:29:21;6.15;;;3.50;;
72557;SDS011;60583;50.094;8.748;2023-07-29T05:31:47;6.57;;;3.42;;
72557;SDS011;60583;50.094;8.748;2023-07-29T05:34:12;7.63;;;4.15;;
72557;SDS011;60583;50.094;8.748;2023-07-29T05:36:37;6.15;;;3.50;;
72557;SDS011;60583;50.094;8.748;2023-07-29T05:39:04;6.05;;;3.58;;
72557;SDS011;60583;50.094;8.748;2023-07-29T05:41:29;6.35;;;3.10;;
72557;SDS011;60583;50.094;8.748;2023-07-29T05:43:55;6.55;;;3.30;;
72557;SDS011;60583;50.094;8.748;2023-07-29T05:46:20;5.78;;;3.15;;
72557;SDS011;60583;50.094;8.748;2023-07-29T05:48:45;5.65;;;3.22;;
72557;SDS011;60583;50.094;8.748;2023-07-29T05:51:11;6.13;;;3.22;;
72557;SDS011;60583;50.094;8.748;2023-07-29T05:53:37;5.45;;;3.40;;
72557;SDS011;60583;50.094;8.748;2023-07-29T05:56:02;7.10;;;3.33;;
72557;SDS011;60583;50.094;8.748;2023-07-29T05:58:28;6.63;;;3.25;;
72557;SDS011;60583;50.094;8.748;2023-07-29T06:00:56;6.18;;;3.47;;
72557;SDS011;60583;50.094;8.748;2023-07-29T06:03:22;7.80;;;4.53;;
72557;SDS011;60583;50.094;8.748;2023-07-29T06:05:48;7.57;;;3.58;;
72557;SDS011;60583;50.094;8.748;2023-07-29T06:08:14;7.10;;;3.55;;
72557;SDS011;60583;50.094;8.748;2023-07-29T06:10:39;5.45;;;3.30;;
72557;SDS011;60583;50.094;8.748;2023-07-29T06:13:05;5.85;;;3.75;;
72557;SDS011;60583;50.094;8.748;2023-07-29T06:15:31;6.88;;;3.88;;
72557;SDS011;60583;50.094;8.748;2023-07-29T06:17:56;6.03;;;3.83;;
72557;SDS011;60583;50.094;8.748;2023-07-29T06:20:22;6.63;;;3.17;;
72557;SDS011;60583;50.094;8.748;2023-07-29T06:22:47;7.47;;;3.33;;
72557;SDS011;60583;50.094;8.748;2023-07-29T06:25:12;7.15;;;3.30;;
72557;SDS011;60583;50.094;8.748;2023-07-29T06:27:38;6.60;;;3.35;;
72557;SDS011;60583;50.094;8.748;2023-07-29T06:30:03;5.70;;;3.10;;
72557;SDS011;60583;50.094;8.748;2023-07-29T06:32:29;6.03;;;3.47;;
72557;SDS011;60583;50.094;8.748;2023-07-29T06:34:55;6.32;;;3.80;;
72557;SDS011;60583;50.094;8.748;2023-07-29T06:37:20;6.88;;;3.40;;
72557;SDS011;60583;50.094;8.748;2023-07-29T06:39:46;7.80;;;3.72;;
72557;SDS011;60583;50.094;8.748;2023-07-29T06:42:11;6.22;;;3.22;;
72557;SDS011;60583;50.094;8.748;2023-07-29T06:44:36;5.28;;;3.15;;
72557;SDS011;60583;50.094;8.748;2023-07-29T06:47:02;6.57;;;3.53;;
72557;SDS011;60583;50.094;8.748;2023-07-29T06:49:27;5.55;;;2.60;;
72557;SDS011;60583;50.094;8.748;2023-07-29T06:51:53;4.80;;;2.47;;
72557;SDS011;60583;50.094;8.748;2023-07-29T06:54:18;5.20;;;2.78;;
72557;SDS011;60583;50.094;8.748;2023-07-29T06:56:43;7.07;;;2.90;;
72557;SDS011;60583;50.094;8.748;2023-07-29T06:59:09;7.43;;;3.03;;
72557;SDS011;60583;50.094;8.748;2023-07-29T07:01:34;7.07;;;2.95;;
72557;SDS011;60583;50.094;8.748;2023-07-29T07:03:59;6.20;;;3.10;;
72557;SDS011;60583;50.094;8.748;2023-07-29T07:06:25;5.82;;;2.90;;
72557;SDS011;60583;50.094;8.748;2023-07-29T07:08:51;8.13;;;3.50;;
72557;SDS011;60583;50.094;8.748;2023-07-29T07:11:18;6.68;;;3.60;;
72557;SDS011;60583;50.094;8.748;2023-07-29T07:13:44;6.50;;;3.38;;
72557;SDS011;60583;50.094;8.748;2023-07-29T07:16:09;6.15;;;3.58;;
72557;SDS011;60583;50.094;8.748;2023-07-29T07:18:34;6.43;;;3.50;;
72557;SDS011;60583;50.094;8.748;2023-07-29T07:21:00;6.72;;;3.47;;
72557;SDS011;60583;50.094;8.748;2023-07-29T07:23:25;7.15;;;3.67;;
72557;SDS011;60583;50.094;8.748;2023-07-29T07:25:51;6.30;;;3.60;;
72557;SDS011;60583;50.094;8.748;2023-07-29T07:28:16;8.75;;;3.92;;
72557;SDS011;60583;50.094;8.748;2023-07-29T07:30:42;7.63;;;3.83;;
72557;SDS011;60583;50.094;8.748;2023-07-29T07:33:07;7.82;;;3.80;;
72557;SDS011;60583;50.094;8.748;2023-07-29T07:35:32;6.05;;;3.65;;
72557;SDS011;60583;50.094;8.748;2023-07-29T07:37:58;7.25;;;3.67;;
72557;SDS011;60583;50.094;8.748;2023-07-29T07:40:27;6.68;;;3.92;;
72557;SDS011;60583;50.094;8.748;2023-07-29T07:42:53;6.60;;;4.50;;
72557;SDS011;60583;50.094;8.748;2023-07-29T07:45:18;6.45;;;3.95;;
72557;SDS011;60583;50.094;8.748;2023-07-29T07:47:44;7.60;;;4.55;;
72557;SDS011;60583;50.094;8.748;2023-07-29T07:50:10;8.75;;;5.00;;
72557;SDS011;60583;50.094;8.748;2023-07-29T07:52:35;9.48;;;4.50;;
72557;SDS011;60583;50.094;8.748;2023-07-29T07:55:01;7.85;;;5.25;;
72557;SDS011;60583;50.094;8.748;2023-07-29T07:57:26;9.95;;;5.97;;
72557;SDS011;60583;50.094;8.748;2023-07-29T07:59:52;7.43;;;5.20;;
72557;SDS011;60583;50.094;8.748;2023-07-29T08:02:17;6.50;;;5.05;;
72557;SDS011;60583;50.094;8.748;2023-07-29T08:04:43;6.35;;;4.78;;
72557;SDS011;60583;50.094;8.748;2023-07-29T08:07:08;8.45;;;5.28;;
72557;SDS011;60583;50.094;8.748;2023-07-29T08:09:34;8.40;;;5.20;;
72557;SDS011;60583;50.094;8.748;2023-07-29T08:11:59;8.18;;;6.22;;
72557;SDS011;60583;50.094;8.748;2023-07-29T08:14:25;7.68;;;4.60;;
72557;SDS011;60583;50.094;8.748;2023-07-29T08:16:51;6.35;;;4.20;;
72557;SDS011;60583;50.094;8.748;2023-07-29T08:19:17;6.65;;;4.32;;
72557;SDS011;60583;50.094;8.748;2023-07-29T08:21:42;6.38;;;4.40;;
72557;SDS011;60583;50.094;8.748;2023-07-29T08:24:07;5.88;;;4.00;;
72557;SDS011;60583;50.094;8.748;2023-07-29T08:26:33;5.53;;;3.92;;
72557;SDS011;60583;50.094;8.748;2023-07-29T08:28:58;5.65;;;4.07;;
72557;SDS011;60583;50.094;8.748;2023-07-29T08:31:24;5.32;;;3.80;;
72557;SDS011;60583;50.094;8.748;2023-07-29T08:33:49;5.93;;;3.80;;
72557;SDS011;60583;50.094;8.748;2023-07-29T08:36:15;4.90;;;3.38;;
72557;SDS011;60583;50.094;8.748;2023-07-29T08:38:40;5.60;;;3.00;;
72557;SDS011;60583;50.094;8.748;2023-07-29T08:41:10;5.22;;;2.92;;
72557;SDS011;60583;50.094;8.748;2023-07-29T08:43:59;4.88;;;3.20;;
72557;SDS011;60583;50.094;8.748;2023-07-29T08:46:31;4.13;;;2.60;;
72557;SDS011;60583;50.094;8.748;2023-07-29T08:48:57;4.20;;;2.65;;
72557;SDS011;60583;50.094;8.748;2023-07-29T08:51:24;5.50;;;3.15;;
72557;SDS011;60583;50.094;8.748;2023-07-29T08:53:50;4.57;;;2.90;;
72557;SDS011;60583;50.094;8.748;2023-07-29T08:56:16;4.45;;;2.50;;
72557;SDS011;60583;50.094;8.748;2023-07-29T08:58:42;5.57;;;2.72;;
72557;SDS011;60583;50.094;8.748;2023-07-29T09:01:08;5.07;;;2.83;;
72557;SDS011;60583;50.094;8.748;2023-07-29T09:03:33;5.65;;;2.80;;
72557;SDS011;60583;50.094;8.748;2023-07-29T09:05:59;4.47;;;2.45;;
72557;SDS011;60583;50.094;8.748;2023-07-29T09:08:26;5.00;;;2.38;;
72557;SDS011;60583;50.094;8.748;2023-07-29T09:10:52;3.55;;;2.05;;
72557;SDS011;60583;50.094;8.748;2023-07-29T09:13:19;4.10;;;2.25;;
72557;SDS011;60583;50.094;8.748;2023-07-29T09:15:45;3.50;;;2.03;;
72557;SDS011;60583;50.094;8.748;2023-07-29T09:18:11;3.78;;;1.60;;
72557;SDS011;60583;50.094;8.748;2023-07-29T09:20:39;3.75;;;1.83;;
72557;SDS011;60583;50.094;8.748;2023-07-29T09:23:07;3.00;;;1.70;;
72557;SDS011;60583;50.094;8.748;2023-07-29T09:25:37;4.22;;;1.90;;
72557;SDS011;60583;50.094;8.748;2023-07-29T09:28:08;3.20;;;1.70;;
72557;SDS011;60583;50.094;8.748;2023-07-29T09:30:34;3.92;;;1.50;;
72557;SDS011;60583;50.094;8.748;2023-07-29T09:33:00;4.45;;;1.50;;
72557;SDS011;60583;50.094;8.748;2023-07-29T09:35:27;3.60;;;1.80;;
72557;SDS011;60583;50.094;8.748;2023-07-29T09:37:53;6.80;;;2.10;;
72557;SDS011;60583;50.094;8.748;2023-07-29T09:40:19;3.45;;;1.50;;
72557;SDS011;60583;50.094;8.748;2023-07-29T09:42:54;4.28;;;1.52;;
72557;SDS011;60583;50.094;8.748;2023-07-29T09:45:23;3.60;;;1.70;;
72557;SDS011;60583;50.094;8.748;2023-07-29T09:47:50;3.38;;;1.60;;
72557;SDS011;60583;50.094;8.748;2023-07-29T09:50:16;3.30;;;1.48;;
72557;SDS011;60583;50.094;8.748;2023-07-29T09:52:42;3.00;;;1.48;;
72557;SDS011;60583;50.094;8.748;2023-07-29T09:55:09;5.25;;;1.35;;
72557;SDS011;60583;50.094;8.748;2023-07-29T09:57:36;2.75;;;1.20;;
72557;SDS011;60583;50.094;8.748;2023-07-29T10:00:04;3.05;;;1.20;;
72557;SDS011;60583;50.094;8.748;2023-07-29T10:02:36;4.15;;;1.30;;
72557;SDS011;60583;50.094;8.748;2023-07-29T10:05:05;2.67;;;1.13;;
72557;SDS011;60583;50.094;8.748;2023-07-29T10:07:32;3.72;;;1.38;;
72557;SDS011;60583;50.094;8.748;2023-07-29T10:09:59;3.55;;;1.17;;
72557;SDS011;60583;50.094;8.748;2023-07-29T10:12:27;2.53;;;1.20;;
72557;SDS011;60583;50.094;8.748;2023-07-29T10:14:53;4.07;;;1.50;;
72557;SDS011;60583;50.094;8.748;2023-07-29T10:17:20;4.57;;;1.75;;
72557;SDS011;60583;50.094;8.748;2023-07-29T10:19:45;3.00;;;1.50;;
72557;SDS011;60583;50.094;8.748;2023-07-29T10:22:12;3.47;;;1.50;;
72557;SDS011;60583;50.094;8.748;2023-07-29T10:24:41;4.45;;;1.60;;
72557;SDS011;60583;50.094;8.748;2023-07-29T10:27:08;3.05;;;1.60;;
72557;SDS011;60583;50.094;8.748;2023-07-29T10:29:38;3.50;;;1.70;;
72557;SDS011;60583;50.094;8.748;2023-07-29T10:32:05;3.55;;;2.40;;
72557;SDS011;60583;50.094;8.748;2023-07-29T10:34:32;4.68;;;1.58;;
72557;SDS011;60583;50.094;8.748;2023-07-29T10:37:00;4.55;;;2.08;;
72557;SDS011;60583;50.094;8.748;2023-07-29T10:39:26;3.40;;;1.60;;
72557;SDS011;60583;50.094;8.748;2023-07-29T10:42:01;3.90;;;1.60;;
72557;SDS011;60583;50.094;8.748;2023-07-29T10:45:03;2.70;;;1.48;;
72557;SDS011;60583;50.094;8.748;2023-07-29T10:47:22;3.38;;;1.42;;
72557;SDS011;60583;50.094;8.748;2023-07-29T10:49:53;2.95;;;1.30;;
72557;SDS011;60583;50.094;8.748;2023-07-29T10:54:55;3.35;;;1.45;;
72557;SDS011;60583;50.094;8.748;2023-07-29T10:57:31;5.63;;;1.75;;
72557;SDS011;60583;50.094;8.748;2023-07-29T10:59:57;3.33;;;1.60;;
72557;SDS011;60583;50.094;8.748;2023-07-29T11:02:35;2.92;;;1.40;;
72557;SDS011;60583;50.094;8.748;2023-07-29T11:05:04;3.90;;;1.48;;
72557;SDS011;60583;50.094;8.748;2023-07-29T11:07:44;3.20;;;1.17;;
72557;SDS011;60583;50.094;8.748;2023-07-29T11:10:11;3.15;;;1.50;;
72557;SDS011;60583;50.094;8.748;2023-07-29T11:12:38;3.40;;;1.40;;
72557;SDS011;60583;50.094;8.748;2023-07-29T11:15:16;3.85;;;1.63;;
72557;SDS011;60583;50.094;8.748;2023-07-29T11:17:47;2.95;;;1.38;;
72557;SDS011;60583;50.094;8.748;2023-07-29T11:20:18;3.45;;;1.63;;
72557;SDS011;60583;50.094;8.748;2023-07-29T11:22:45;2.85;;;1.45;;
72557;SDS011;60583;50.094;8.748;2023-07-29T11:25:12;6.05;;;2.22;;
72557;SDS011;60583;50.094;8.748;2023-07-29T11:27:38;3.53;;;1.63;;
72557;SDS011;60583;50.094;8.748;2023-07-29T11:30:05;4.15;;;1.90;;
72557;SDS011;60583;50.094;8.748;2023-07-29T11:32:32;3.10;;;1.67;;
72557;SDS011;60583;50.094;8.748;2023-07-29T11:35:04;4.82;;;1.90;;
72557;SDS011;60583;50.094;8.748;2023-07-29T11:37:32;3.90;;;1.83;;
72557;SDS011;60583;50.094;8.748;2023-07-29T11:39:59;3.80;;;1.60;;
72557;SDS011;60583;50.094;8.748;2023-07-29T11:42:24;5.07;;;1.75;;
72557;SDS011;60583;50.094;8.748;2023-07-29T11:44:51;4.80;;;2.22;;
72557;SDS011;60583;50.094;8.748;2023-07-29T11:47:16;4.97;;;1.80;;
72557;SDS011;60583;50.094;8.748;2023-07-29T11:49:42;4.53;;;1.92;;
72557;SDS011;60583;50.094;8.748;2023-07-29T11:52:08;3.80;;;1.90;;
72557;SDS011;60583;50.094;8.748;2023-07-29T11:54:35;3.10;;;1.50;;
72557;SDS011;60583;50.094;8.748;2023-07-29T11:57:01;3.40;;;1.60;;
72557;SDS011;60583;50.094;8.748;2023-07-29T11:59:29;3.38;;;1.67;;
72557;SDS011;60583;50.094;8.748;2023-07-29T12:01:55;3.40;;;1.77;;
72557;SDS011;60583;50.094;8.748;2023-07-29T12:04:20;3.65;;;1.60;;
72557;SDS011;60583;50.094;8.748;2023-07-29T12:06:46;3.30;;;1.60;;
72557;SDS011;60583;50.094;8.748;2023-07-29T12:09:12;10.27;;;6.30;;
72557;SDS011;60583;50.094;8.748;2023-07-29T12:11:38;4.00;;;1.52;;
72557;SDS011;60583;50.094;8.748;2023-07-29T12:14:07;3.67;;;1.50;;
72557;SDS011;60583;50.094;8.748;2023-07-29T12:16:40;3.15;;;1.60;;
72557;SDS011;60583;50.094;8.748;2023-07-29T12:19:06;4.72;;;1.70;;
72557;SDS011;60583;50.094;8.748;2023-07-29T12:21:32;4.18;;;1.45;;
72557;SDS011;60583;50.094;8.748;2023-07-29T12:23:58;3.75;;;1.80;;
72557;SDS011;60583;50.094;8.748;2023-07-29T12:26:26;3.22;;;1.80;;
72557;SDS011;60583;50.094;8.748;2023-07-29T12:31:18;3.95;;;1.60;;
72557;SDS011;60583;50.094;8.748;2023-07-29T12:33:44;3.60;;;2.00;;
72557;SDS011;60583;50.094;8.748;2023-07-29T12:36:09;3.42;;;1.73;;
72557;SDS011;60583;50.094;8.748;2023-07-29T12:38:35;3.17;;;1.60;;
72557;SDS011;60583;50.094;8.748;2023-07-29T12:41:01;2.80;;;1.50;;
72557;SDS011;60583;50.094;8.748;2023-07-29T12:43:26;3.58;;;1.58;;
72557;SDS011;60583;50.094;8.748;2023-07-29T12:45:53;3.38;;;1.60;;
72557;SDS011;60583;50.094;8.748;2023-07-29T12:48:19;4.00;;;1.85;;
72557;SDS011;60583;50.094;8.748;2023-07-29T12:50:44;3.63;;;2.13;;
72557;SDS011;60583;50.094;8.748;2023-07-29T12:53:10;3.88;;;1.80;;
72557;SDS011;60583;50.094;8.748;2023-07-29T12:55:36;4.40;;;1.98;;
72557;SDS011;60583;50.094;8.748;2023-07-29T12:58:01;3.20;;;1.80;;
72557;SDS011;60583;50.094;8.748;2023-07-29T13:00:27;4.53;;;1.85;;
72557;SDS011;60583;50.094;8.748;2023-07-29T13:02:53;3.78;;;1.60;;
72557;SDS011;60583;50.094;8.748;2023-07-29T13:05:19;3.67;;;1.83;;
72557;SDS011;60583;50.094;8.748;2023-07-29T13:07:45;3.58;;;1.80;;
72557;SDS011;60583;50.094;8.748;2023-07-29T13:10:11;3.20;;;1.63;;
72557;SDS011;60583;50.094;8.748;2023-07-29T13:12:37;3.20;;;1.80;;
72557;SDS011;60583;50.094;8.748;2023-07-29T13:15:03;3.95;;;1.50;;
72557;SDS011;60583;50.094;8.748;2023-07-29T13:17:29;3.13;;;1.63;;
72557;SDS011;60583;50.094;8.748;2023-07-29T13:19:54;3.85;;;1.70;;
72557;SDS011;60583;50.094;8.748;2023-07-29T13:22:20;3.28;;;1.42;;
72557;SDS011;60583;50.094;8.748;2023-07-29T13:24:46;3.53;;;1.50;;
72557;SDS011;60583;50.094;8.748;2023-07-29T13:27:11;3.50;;;1.70;;
72557;SDS011;60583;50.094;8.748;2023-07-29T13:29:37;3.05;;;1.67;;
72557;SDS011;60583;50.094;8.748;2023-07-29T13:32:02;4.13;;;1.98;;
72557;SDS011;60583;50.094;8.748;2023-07-29T13:34:28;3.63;;;1.80;;
72557;SDS011;60583;50.094;8.748;2023-07-29T13:36:53;5.68;;;3.20;;
72557;SDS011;60583;50.094;8.748;2023-07-29T13:39:19;4.22;;;1.85;;
72557;SDS011;60583;50.094;8.748;2023-07-29T13:41:44;3.40;;;1.60;;
72557;SDS011;60583;50.094;8.748;2023-07-29T13:44:10;3.58;;;1.50;;
72557;SDS011;60583;50.094;8.748;2023-07-29T13:46:35;3.30;;;1.52;;
72557;SDS011;60583;50.094;8.748;2023-07-29T13:49:00;2.90;;;1.45;;
72557;SDS011;60583;50.094;8.748;2023-07-29T13:51:27;3.88;;;1.73;;
72557;SDS011;60583;50.094;8.748;2023-07-29T13:53:52;3.53;;;1.50;;
72557;SDS011;60583;50.094;8.748;2023-07-29T13:56:17;2.90;;;1.50;;
72557;SDS011;60583;50.094;8.748;2023-07-29T13:58:43;3.35;;;1.50;;
72557;SDS011;60583;50.094;8.748;2023-07-29T14:01:08;3.22;;;1.52;;
72557;SDS011;60583;50.094;8.748;2023-07-29T14:03:34;5.43;;;1.80;;
72557;SDS011;60583;50.094;8.748;2023-07-29T14:06:02;3.40;;;1.98;;
72557;SDS011;60583;50.094;8.748;2023-07-29T14:08:27;3.58;;;1.70;;
72557;SDS011;60583;50.094;8.748;2023-07-29T14:10:53;5.05;;;2.00;;
72557;SDS011;60583;50.094;8.748;2023-07-29T14:13:18;3.33;;;1.50;;
72557;SDS011;60583;50.094;8.748;2023-07-29T14:15:43;3.35;;;1.50;;
72557;SDS011;60583;50.094;8.748;2023-07-29T14:18:09;3.20;;;1.70;;
72557;SDS011;60583;50.094;8.748;2023-07-29T14:20:34;3.28;;;1.67;;
72557;SDS011;60583;50.094;8.748;2023-07-29T14:23:00;3.70;;;2.10;;
72557;SDS011;60583;50.094;8.748;2023-07-29T14:25:25;3.30;;;1.70;;
72557;SDS011;60583;50.094;8.748;2023-07-29T14:27:50;3.70;;;1.60;;
72557;SDS011;60583;50.094;8.748;2023-07-29T14:30:16;3.10;;;1.50;;
72557;SDS011;60583;50.094;8.748;2023-07-29T14:32:41;2.88;;;1.40;;
72557;SDS011;60583;50.094;8.748;2023-07-29T14:35:08;4.80;;;1.92;;
72557;SDS011;60583;50.094;8.748;2023-07-29T14:37:34;5.13;;;2.60;;
72557;SDS011;60583;50.094;8.748;2023-07-29T14:40:00;6.75;;;3.20;;
72557;SDS011;60583;50.094;8.748;2023-07-29T14:46:06;3.30;;;1.40;;
72557;SDS011;60583;50.094;8.748;2023-07-29T14:48:31;3.67;;;1.60;;
72557;SDS011;60583;50.094;8.748;2023-07-29T14:50:57;3.50;;;1.55;;
72557;SDS011;60583;50.094;8.748;2023-07-29T14:53:22;3.10;;;1.67;;
72557;SDS011;60583;50.094;8.748;2023-07-29T14:55:48;3.72;;;2.00;;
72557;SDS011;60583;50.094;8.748;2023-07-29T14:58:13;3.40;;;1.63;;